Rockbridge, Missouri
Current Conditions -  °F | °C
As of 12:53 AM on Thursday 27 Nov 2014 (Local Time) from KUNO Reporting Station
Overcast Overcast  
Wind Chill: 23°   Ceiling: 1800
Heat Index: 33°   Visibility: 10mi
Dew Point: 25°   Wind: 14mph
Humidity: 72%   Direction: 320°NW
Pressure: 30.27"   Gusts: 24mph
Location:  36.79°N, 92.41°W
Report Text: KUNO 270653Z AUTO 32012G21KT 10SM OVC018 01/M04 A3027 RMK AO2 SLP257 T00061039
Loading
Personal Weather Stations






























Interactive Weather Map New forecast layout! Learn more

10-Day Weather Forecast

Advertisements
Track Severe Weather on mobile